Time;durP1;ratioP1;P1;durP2;ratioP2;P2;SDS_P1;SDS_P2;PMS_P1;PMS_P2;Temp;Humidity;BMP_temperature;BMP_pressure;BME280_temperature;BME280_humidity;BME280_pressure;Samples;Min_cycle;Max_cycle;Signal;HPM_P1;HPM_P2
2022/07/22 00:01:20;;;;;;;5.68;4.10;;;;;;;18.78;91.00;96286.34;5032311;28;24435;-74
2022/07/22 00:03:46;;;;;;;4.20;3.80;;;;;;;18.66;90.61;96287.38;5031992;28;24467;-74
2022/07/22 00:06:13;;;;;;;6.35;3.75;;;;;;;18.67;89.73;96279.38;5032151;28;24427;-74
2022/07/22 00:08:39;;;;;;;4.78;3.85;;;;;;;18.81;88.16;96289.53;5032252;28;24416;-74
2022/07/22 00:11:07;;;;;;;6.00;4.20;;;;;;;18.88;87.29;96289.84;5032207;28;24426;-74
2022/07/22 00:13:34;;;;;;;7.00;4.20;;;;;;;18.29;90.83;96282.69;5031936;28;24964;-74
2022/07/22 00:16:00;;;;;;;6.00;4.10;;;;;;;17.95;94.24;96282.94;5032111;28;24427;-74
2022/07/22 00:18:27;;;;;;;5.20;4.05;;;;;;;17.90;96.32;96285.91;5032031;28;24444;-74
2022/07/22 00:20:54;;;;;;;4.45;3.83;;;;;;;17.89;96.40;96283.44;5032434;28;24432;-74
2022/07/22 00:23:20;;;;;;;4.80;4.20;;;;;;;17.98;95.10;96276.59;5031736;28;24626;-74
2022/07/22 00:25:46;;;;;;;5.00;4.47;;;;;;;18.01;95.37;96285.03;5031874;28;24436;-74
2022/07/22 00:28:14;;;;;;;6.32;4.03;;;;;;;17.89;96.78;96280.81;5031866;28;24416;-74
2022/07/22 00:30:41;;;;;;;10.73;4.05;;;;;;;17.93;94.92;96276.97;5031887;28;24416;-74
2022/07/22 00:33:07;;;;;;;7.00;4.00;;;;;;;17.87;95.26;96272.25;5031879;28;24426;-74
2022/07/22 00:35:34;;;;;;;4.18;3.50;;;;;;;17.67;97.24;96279.97;5031484;28;24424;-74
2022/07/22 00:38:00;;;;;;;7.70;3.65;;;;;;;17.65;97.16;96278.44;5031420;28;24420;-74
2022/07/22 00:40:27;;;;;;;5.20;4.10;;;;;;;17.68;99.80;96270.31;5031761;28;24537;-74
2022/07/22 00:42:53;;;;;;;7.63;3.80;;;;;;;17.66;98.39;96270.44;5031783;28;24456;-74
2022/07/22 00:45:21;;;;;;;5.07;4.13;;;;;;;17.67;96.56;96268.66;5031703;28;24507;-74
2022/07/22 00:47:47;;;;;;;5.05;3.83;;;;;;;17.53;98.43;96266.34;5031685;28;24423;-74
2022/07/22 00:50:14;;;;;;;6.32;4.15;;;;;;;17.48;100.00;96266.72;5031805;28;24968;-74
2022/07/22 00:52:42;;;;;;;7.43;5.18;;;;;;;17.43;100.00;96263.66;5031681;28;24420;-74
2022/07/22 00:55:09;;;;;;;5.10;4.40;;;;;;;17.55;100.00;96261.81;5031591;28;24478;-74
2022/07/22 00:57:36;;;;;;;5.07;3.90;;;;;;;17.56;99.13;96258.25;5031322;28;24478;-74
2022/07/22 01:00:06;;;;;;;8.93;4.38;;;;;;;17.75;94.77;96257.53;5031443;28;24448;-74
2022/07/22 01:02:34;;;;;;;5.13;4.18;;;;;;;17.59;95.55;96260.59;5031563;28;24418;-75
2022/07/22 01:05:01;;;;;;;3.78;3.47;;;;;;;17.41;96.76;96257.72;5031552;28;24427;-75
2022/07/22 01:07:28;;;;;;;6.25;4.05;;;;;;;17.14;100.00;96248.56;5031526;28;24442;-75
2022/07/22 01:09:54;;;;;;;10.38;4.40;;;;;;;17.05;100.00;96254.53;5031595;28;24491;-75
2022/07/22 01:12:20;;;;;;;180.87;120.67;;;;;;;16.87;100.00;96245.53;5035398;28;24486;-74
2022/07/22 01:14:47;;;;;;;133.48;94.03;;;;;;;16.87;100.00;96246.41;5035342;28;24428;-74
2022/07/22 01:17:13;;;;;;;112.18;73.10;;;;;;;17.02;100.00;96244.31;5035000;28;24953;-74
2022/07/22 01:19:41;;;;;;;30.47;23.10;;;;;;;17.09;100.00;96247.25;5035225;28;24440;-74
2022/07/22 01:22:09;;;;;;;40.85;27.33;;;;;;;17.08;100.00;96248.22;5034984;28;24942;-75
2022/07/22 01:24:36;;;;;;;48.97;34.65;;;;;;;17.14;100.00;96245.94;5034746;28;24957;-74
2022/07/22 01:27:03;;;;;;;53.33;32.40;;;;;;;17.24;100.00;96247.78;5035196;28;24420;-74
2022/07/22 01:29:30;;;;;;;36.17;25.88;;;;;;;17.34;100.00;96243.47;5035039;28;24486;-74
2022/07/22 01:31:56;;;;;;;18.30;11.50;;;;;;;17.38;100.00;96244.88;5034931;28;24953;-74
2022/07/22 01:34:23;;;;;;;7.75;6.57;;;;;;;17.32;100.00;96251.47;5034916;28;24815;-74
2022/07/22 01:36:49;;;;;;;5.78;4.65;;;;;;;17.28;100.00;96246.56;5035051;28;24424;-74
2022/07/22 01:39:17;;;;;;;7.10;5.60;;;;;;;16.97;100.00;96241.22;5034611;28;24965;-74
2022/07/22 01:41:44;;;;;;;8.27;5.50;;;;;;;17.03;100.00;96242.53;5035043;28;24427;-74
2022/07/22 01:44:11;;;;;;;7.90;6.47;;;;;;;17.15;100.00;96238.91;5034596;28;24938;-74
2022/07/22 01:46:38;;;;;;;8.82;6.38;;;;;;;17.22;100.00;96241.88;5034789;28;24423;-75
2022/07/22 01:49:04;;;;;;;8.18;5.65;;;;;;;17.26;100.00;96243.28;5034810;28;24462;-74
2022/07/22 01:51:31;;;;;;;7.07;6.30;;;;;;;17.11;100.00;96238.34;5034823;28;24419;-74
2022/07/22 01:53:57;;;;;;;9.95;7.55;;;;;;;17.01;100.00;96236.59;5034789;28;24538;-75
2022/07/22 01:56:25;;;;;;;8.82;7.93;;;;;;;17.20;100.00;96241.16;5034562;28;24431;-74
2022/07/22 01:58:51;;;;;;;6.55;4.35;;;;;;;17.34;100.00;96238.22;5034487;28;24470;-74
2022/07/22 02:01:18;;;;;;;6.28;4.57;;;;;;;17.20;99.21;96238.53;5035497;28;24427;-74
2022/07/22 02:03:44;;;;;;;6.07;4.65;;;;;;;17.02;100.00;96231.25;5034547;28;24446;-74
2022/07/22 02:06:10;;;;;;;6.25;5.25;;;;;;;17.00;100.00;96242.78;5034473;28;24424;-74
2022/07/22 02:08:37;;;;;;;5.68;4.57;;;;;;;16.98;100.00;96235.03;5034482;28;24493;-74
2022/07/22 02:11:03;;;;;;;5.68;4.68;;;;;;;17.14;98.90;96239.88;5034431;28;24423;-74
2022/07/22 02:13:31;;;;;;;4.50;4.10;;;;;;;16.85;100.00;96242.22;5034394;28;24813;-74
2022/07/22 02:15:57;;;;;;;7.25;5.30;;;;;;;16.77;100.00;96237.63;5034285;28;24428;-74
2022/07/22 02:18:25;;;;;;;5.55;4.70;;;;;;;16.73;100.00;96238.78;5034235;28;24420;-75
2022/07/22 02:20:52;;;;;;;6.88;5.05;;;;;;;16.76;100.00;96243.81;5034175;28;24490;-75
2022/07/22 02:23:18;;;;;;;4.85;3.95;;;;;;;16.73;100.00;96238.78;5033269;28;24448;-74
2022/07/22 02:25:45;;;;;;;8.50;4.90;;;;;;;16.61;100.00;96227.53;5034094;28;24485;-74
2022/07/22 02:28:11;;;;;;;6.05;5.13;;;;;;;16.47;100.00;96235.63;5034043;28;24424;-74
2022/07/22 02:30:39;;;;;;;6.00;4.82;;;;;;;16.63;100.00;96232.63;5034109;28;24478;-74
2022/07/22 02:33:06;;;;;;;5.53;4.40;;;;;;;16.55;100.00;96225.38;5034052;28;24423;-74
2022/07/22 02:35:33;;;;;;;4.47;4.05;;;;;;;16.57;100.00;96226.06;5033574;28;24428;-74
2022/07/22 02:37:59;;;;;;;5.20;4.20;;;;;;;16.56;100.00;96231.44;5033838;28;24416;-74
2022/07/22 02:40:26;;;;;;;5.78;4.55;;;;;;;16.59;100.00;96226.81;5033752;28;24448;-74
2022/07/22 02:42:52;;;;;;;6.68;4.93;;;;;;;16.62;100.00;96216.09;5033879;28;24416;-74
2022/07/22 02:45:19;;;;;;;5.00;4.50;;;;;;;16.70;100.00;96224.16;5033621;28;24790;-74
2022/07/22 02:47:48;;;;;;;4.60;4.20;;;;;;;16.75;100.00;96223.81;5033615;28;24439;-74
2022/07/22 02:50:15;;;;;;;4.40;4.00;;;;;;;16.59;100.00;96218.94;5033598;28;24412;-74
2022/07/22 02:52:41;;;;;;;5.25;4.60;;;;;;;16.58;100.00;96226.94;5033627;28;24423;-74
2022/07/22 02:55:08;;;;;;;6.10;4.43;;;;;;;16.59;100.00;96226.81;5033281;28;24443;-74
2022/07/22 02:57:35;;;;;;;8.57;4.40;;;;;;;16.66;100.00;96227.16;5033290;28;24520;-74
2022/07/22 03:00:01;;;;;;;4.57;4.15;;;;;;;16.61;100.00;96230.13;5033441;28;24826;-74
2022/07/22 03:02:28;;;;;;;6.32;4.35;;;;;;;16.57;100.00;96228.69;5033184;28;24942;-74
2022/07/22 03:04:56;;;;;;;5.80;4.40;;;;;;;16.56;100.00;96223.59;5033292;28;24419;-75
2022/07/22 03:07:22;;;;;;;5.97;4.85;;;;;;;16.56;100.00;96224.41;5033587;28;24427;-74
2022/07/22 03:09:49;;;;;;;6.60;4.80;;;;;;;16.52;100.00;96220.41;5033563;28;24420;-74
2022/07/22 03:12:15;;;;;;;6.47;4.78;;;;;;;16.46;100.00;96231.31;5033341;28;24889;-74
2022/07/22 03:14:41;;;;;;;6.72;4.70;;;;;;;16.47;100.00;96227.78;5032897;28;24929;-74
2022/07/22 03:17:08;;;;;;;5.63;4.40;;;;;;;16.47;100.00;96224.34;5033375;28;24470;-74
2022/07/22 03:19:34;;;;;;;5.07;4.47;;;;;;;16.52;100.00;96227.41;5033025;28;24497;-74
2022/07/22 03:22:02;;;;;;;5.53;4.28;;;;;;;16.49;100.00;96220.63;5033314;28;24431;-74
2022/07/22 03:24:28;;;;;;;5.13;4.38;;;;;;;16.47;100.00;96227.78;5032823;28;25019;-74
2022/07/22 03:26:55;;;;;;;7.82;4.57;;;;;;;16.54;100.00;96228.09;5032981;28;24412;-74
2022/07/22 03:29:21;;;;;;;5.13;3.90;;;;;;;16.41;100.00;96230.88;5032704;28;24416;-74
2022/07/22 03:31:48;;;;;;;11.38;4.55;;;;;;;16.23;100.00;96219.25;5032624;28;24466;-74
2022/07/22 03:34:14;;;;;;;5.82;4.40;;;;;;;16.39;100.00;96231.00;5032110;28;24976;-74
2022/07/22 03:36:41;;;;;;;6.33;4.57;;;;;;;16.14;100.00;96226.84;5032297;28;24470;-74
2022/07/22 03:39:08;;;;;;;5.65;4.57;;;;;;;16.13;100.00;96225.19;5032193;28;24426;-74
2022/07/22 03:41:35;;;;;;;5.25;4.32;;;;;;;16.10;100.00;96225.44;5032030;28;24466;-74
2022/07/22 03:44:01;;;;;;;6.13;4.20;;;;;;;16.02;100.00;96219.97;5032337;28;24423;-74
2022/07/22 03:46:28;;;;;;;7.23;3.90;;;;;;;15.96;100.00;96226.50;5031967;28;24825;-74
2022/07/22 03:48:54;;;;;;;5.50;3.95;;;;;;;16.03;100.00;96229.47;5032382;28;24412;-74
2022/07/22 03:51:20;;;;;;;6.88;3.90;;;;;;;16.01;100.00;96227.91;5032397;28;24424;-74
2022/07/22 03:53:47;;;;;;;4.70;4.30;;;;;;;15.99;100.00;96214.97;5032382;28;24758;-74
2022/07/22 03:56:15;;;;;;;4.68;4.05;;;;;;;16.03;100.00;96228.63;5031992;28;24946;-74
2022/07/22 03:58:42;;;;;;;10.80;4.45;;;;;;;16.19;100.00;96223.88;5032189;28;24430;-74
2022/07/22 04:01:08;;;;;;;6.10;3.97;;;;;;;16.18;100.00;96230.88;5032175;28;24447;-74
2022/07/22 04:03:34;;;;;;;5.75;3.88;;;;;;;15.90;100.00;96231.34;5032188;28;24432;-74
2022/07/22 04:06:01;;;;;;;8.27;4.57;;;;;;;15.78;100.00;96227.06;5031760;28;24949;-74
2022/07/22 04:08:27;;;;;;;6.47;4.60;;;;;;;15.81;100.00;96221.63;5032085;28;24423;-74
2022/07/22 04:10:54;;;;;;;4.80;4.30;;;;;;;15.84;100.00;96218.78;5032111;28;24778;-74
2022/07/22 04:13:21;;;;;;;4.88;4.47;;;;;;;15.78;100.00;96222.69;5031778;28;24972;-74
2022/07/22 04:15:48;;;;;;;5.85;5.10;;;;;;;15.72;100.00;96216.16;5031997;28;24487;-74
2022/07/22 04:18:17;;;;;;;5.50;4.88;;;;;;;15.59;100.00;96219.78;5031930;28;24431;-74
2022/07/22 04:20:43;;;;;;;5.30;4.60;;;;;;;15.64;100.00;96215.03;5031929;28;24446;-74
2022/07/22 04:23:10;;;;;;;6.40;4.95;;;;;;;15.82;100.00;96224.09;5031943;28;24435;-74
2022/07/22 04:25:36;;;;;;;5.60;4.70;;;;;;;15.70;100.00;96218.03;5031915;28;24872;-74
2022/07/22 04:28:03;;;;;;;5.28;4.78;;;;;;;15.64;100.00;96215.84;5031529;28;24966;-74
2022/07/22 04:30:31;;;;;;;6.15;5.18;;;;;;;15.65;100.00;96217.56;5031892;28;24427;-74
2022/07/22 04:32:58;;;;;;;6.25;4.80;;;;;;;15.74;100.00;96221.25;5031858;28;24462;-74
2022/07/22 04:35:25;;;;;;;5.07;4.57;;;;;;;15.85;100.00;96209.97;5031430;28;24428;-74
2022/07/22 04:37:51;;;;;;;7.53;4.72;;;;;;;15.90;100.00;96213.06;5031667;28;24424;-74
2022/07/22 04:40:18;;;;;;;7.80;4.73;;;;;;;16.10;100.00;96217.59;5031710;28;24853;-74
2022/07/22 04:42:45;;;;;;;6.63;4.72;;;;;;;16.21;100.00;96211.53;5031736;28;24416;-74
2022/07/22 04:45:12;;;;;;;6.93;4.97;;;;;;;16.30;100.00;96208.19;5031105;28;24810;-74
2022/07/22 04:47:40;;;;;;;6.03;4.68;;;;;;;16.28;100.00;96210.09;5031281;28;24503;-74
2022/07/22 04:50:08;;;;;;;4.70;3.95;;;;;;;16.14;100.00;96211.19;5031658;28;24495;-74
2022/07/22 04:52:34;;;;;;;8.13;4.87;;;;;;;16.15;100.00;96212.00;5031587;28;24825;-74
2022/07/22 04:55:01;;;;;;;6.40;3.97;;;;;;;16.29;100.00;96213.53;5031516;28;24451;-74
2022/07/22 04:57:27;;;;;;;6.45;4.82;;;;;;;16.38;100.00;96211.03;5031592;28;24423;-74
2022/07/22 04:59:54;;;;;;;6.60;4.50;;;;;;;16.55;100.00;96209.69;5031106;28;24972;-74
2022/07/22 05:02:20;;;;;;;7.85;5.20;;;;;;;16.75;100.00;96204.69;5031540;28;24820;-74
2022/07/22 05:04:49;;;;;;;7.03;5.25;;;;;;;16.88;100.00;96205.38;5031463;28;24428;-74
2022/07/22 05:07:15;;;;;;;5.35;4.78;;;;;;;17.00;100.00;96206.97;5031480;28;24833;-73
2022/07/22 05:09:41;;;;;;;6.93;5.63;;;;;;;17.09;100.00;96201.00;5031396;28;24420;-74
2022/07/22 05:12:08;;;;;;;6.82;5.07;;;;;;;17.16;100.00;96206.53;5031409;28;24806;-74
2022/07/22 05:14:35;;;;;;;9.07;5.22;;;;;;;17.27;100.00;96206.47;5031243;28;24424;-74
2022/07/22 05:17:01;;;;;;;6.00;5.03;;;;;;;17.31;100.00;96199.22;5031323;28;24470;-74
2022/07/22 05:19:28;;;;;;;9.30;5.38;;;;;;;17.39;100.00;96204.63;5031375;28;24423;-78
2022/07/22 05:21:56;;;;;;;10.80;5.38;;;;;;;17.46;100.00;96202.34;5031160;28;24802;-77
2022/07/22 05:24:22;;;;;;;7.40;5.32;;;;;;;17.47;100.00;96197.00;5030800;28;24941;-77
2022/07/22 05:26:48;;;;;;;6.07;5.47;;;;;;;17.22;100.00;96206.03;5029283;28;24451;-77
2022/07/22 05:29:15;;;;;;;5.90;5.30;;;;;;;17.23;100.00;96207.69;5028861;28;24428;-77
2022/07/22 05:31:41;;;;;;;6.93;5.78;;;;;;;17.40;100.00;96201.91;5026088;28;24428;-76
2022/07/22 05:34:08;;;;;;;7.50;5.43;;;;;;;17.44;100.00;96197.25;5026346;28;24527;-77
2022/07/22 05:36:34;;;;;;;5.57;4.90;;;;;;;17.67;100.00;96197.94;5028277;28;24936;-77
2022/07/22 05:39:02;;;;;;;7.30;5.82;;;;;;;18.03;100.00;96196.63;5028063;28;24451;-76
2022/07/22 05:41:29;;;;;;;7.65;5.80;;;;;;;18.14;100.00;96203.56;5028520;28;25013;-76
2022/07/22 05:43:55;;;;;;;5.85;5.25;;;;;;;18.24;100.00;96196.53;5028972;28;24447;-74
2022/07/22 05:46:22;;;;;;;6.38;5.78;;;;;;;18.46;100.00;96194.69;5028490;28;24423;-74
2022/07/22 05:48:48;;;;;;;7.85;5.97;;;;;;;18.64;100.00;96200.94;5028347;28;24428;-74
2022/07/22 05:51:15;;;;;;;7.80;6.57;;;;;;;18.90;100.00;96198.66;5028878;28;24522;-74
2022/07/22 05:53:42;;;;;;;6.88;5.93;;;;;;;19.02;100.00;96200.19;5028337;28;24806;-74
2022/07/22 05:56:11;;;;;;;6.70;5.88;;;;;;;19.18;100.00;96196.19;5021107;28;24432;-74
2022/07/22 05:58:38;;;;;;;7.80;6.45;;;;;;;19.22;99.92;96201.00;5023179;28;24992;-74
2022/07/22 06:01:05;;;;;;;7.57;5.85;;;;;;;18.89;100.00;96202.25;5032346;28;24455;-74
2022/07/22 06:03:31;;;;;;;7.07;6.38;;;;;;;19.31;100.00;96194.09;5032177;28;25000;-74
2022/07/22 06:05:58;;;;;;;8.30;6.13;;;;;;;19.44;100.00;96192.00;5031939;28;24447;-74
2022/07/22 06:08:24;;;;;;;8.32;6.75;;;;;;;19.76;100.00;96196.97;5020910;28;24432;-73
2022/07/22 06:10:50;;;;;;;9.80;6.72;;;;;;;19.90;100.00;96195.66;5031361;28;24431;-73
2022/07/22 06:13:18;;;;;;;14.70;7.32;;;;;;;20.28;98.50;96201.72;5024951;28;24576;-73
2022/07/22 06:15:45;;;;;;;11.13;7.30;;;;;;;20.27;96.72;96198.28;5027968;28;24798;-73
2022/07/22 06:18:11;;;;;;;9.88;7.25;;;;;;;20.27;96.57;96206.16;5031393;28;24431;-74
2022/07/22 06:20:38;;;;;;;9.70;6.70;;;;;;;20.24;94.69;96195.94;5031689;28;24456;-74
2022/07/22 06:23:04;;;;;;;8.80;7.80;;;;;;;20.43;95.81;96199.44;5031763;28;25003;-74
2022/07/22 06:25:31;;;;;;;8.35;6.93;;;;;;;20.48;94.25;96199.84;5031909;28;24801;-74
2022/07/22 06:27:57;;;;;;;9.73;7.00;;;;;;;20.45;93.65;96198.31;5031880;28;24443;-74
2022/07/22 06:30:26;;;;;;;7.43;6.53;;;;;;;20.59;94.73;96204.94;5031917;28;24482;-74
2022/07/22 06:32:52;;;;;;;8.23;7.07;;;;;;;20.65;95.93;96201.69;5031540;28;24439;-75
2022/07/22 06:35:19;;;;;;;9.90;7.72;;;;;;;20.97;95.96;96203.03;5029356;28;24438;-74
2022/07/22 06:37:45;;;;;;;12.00;7.72;;;;;;;21.46;93.03;96198.19;5031570;28;24432;-75
2022/07/22 06:40:13;;;;;;;9.43;7.15;;;;;;;21.40;90.74;96196.19;5031696;28;24436;-74
2022/07/22 06:42:40;;;;;;;8.48;7.05;;;;;;;21.40;89.70;96201.47;5031649;28;24435;-74
2022/07/22 06:45:07;;;;;;;9.97;7.10;;;;;;;21.56;89.62;96198.13;5031104;28;24483;-74
2022/07/22 06:47:35;;;;;;;7.68;6.53;;;;;;;21.71;89.07;96197.41;5031231;28;24432;-75
2022/07/22 06:50:01;;;;;;;9.15;6.65;;;;;;;21.89;85.77;96194.72;5032114;28;24447;-73
2022/07/22 06:52:28;;;;;;;8.20;6.80;;;;;;;21.94;86.36;96197.69;5031687;28;24442;-74
2022/07/22 06:54:54;;;;;;;10.77;6.70;;;;;;;22.22;84.23;96192.28;5031304;28;24443;-74
2022/07/22 06:57:21;;;;;;;10.57;7.35;;;;;;;22.39;80.99;96193.97;5031117;28;24447;-74
2022/07/22 06:59:47;;;;;;;12.13;7.27;;;;;;;22.34;84.86;96192.81;5031107;28;24438;-74
2022/07/22 07:02:14;;;;;;;8.90;6.78;;;;;;;22.33;82.10;96192.00;5031149;28;24451;-74
2022/07/22 07:04:41;;;;;;;9.18;6.85;;;;;;;22.27;83.38;96184.69;5027181;28;24432;-74
2022/07/22 07:07:08;;;;;;;9.68;6.90;;;;;;;22.38;81.36;96189.69;5031285;28;24451;-74
2022/07/22 07:09:35;;;;;;;8.47;6.90;;;;;;;22.60;79.45;96185.66;5030434;28;24490;-74
2022/07/22 07:12:01;;;;;;;8.77;6.33;;;;;;;22.77;81.67;96180.41;5031170;28;24430;-74
2022/07/22 07:14:28;;;;;;;8.40;6.38;;;;;;;23.11;81.33;96175.06;5030945;28;24435;-74
2022/07/22 07:16:54;;;;;;;9.40;7.25;;;;;;;22.84;77.92;96176.13;5024773;28;24443;-74
2022/07/22 07:19:21;;;;;;;11.13;7.13;;;;;;;23.45;76.30;96169.59;5030819;28;24854;-75
2022/07/22 07:21:48;;;;;;;6.95;6.15;;;;;;;23.44;76.76;96165.31;5031107;28;25048;-76
2022/07/22 07:24:15;;;;;;;10.57;6.55;;;;;;;23.50;74.79;96169.09;5031124;28;24993;-75
2022/07/22 07:26:41;;;;;;;8.85;6.57;;;;;;;22.60;77.37;96161.06;5031045;28;24439;-75
2022/07/22 07:29:08;;;;;;;14.93;6.22;;;;;;;23.10;79.47;96163.66;5031244;28;24436;-75
2022/07/22 07:31:35;;;;;;;8.60;6.07;;;;;;;23.41;74.06;96158.53;5031072;28;24482;-75
2022/07/22 07:34:01;;;;;;;13.57;5.83;;;;;;;23.72;74.25;96160.50;5031488;28;24439;-75
2022/07/22 07:36:28;;;;;;;9.55;6.18;;;;;;;24.21;72.33;96163.00;5024447;28;24829;-75
2022/07/22 07:38:55;;;;;;;10.17;5.67;;;;;;;24.55;67.09;96160.09;5031298;28;24435;-75
2022/07/22 07:41:22;;;;;;;8.63;6.00;;;;;;;24.72;66.51;96160.78;5031127;28;24617;-75
2022/07/22 07:43:48;;;;;;;7.72;6.40;;;;;;;24.88;66.92;96162.50;5031620;28;24443;-75
2022/07/22 07:46:15;;;;;;;9.02;6.32;;;;;;;24.76;65.08;96164.75;5031374;28;24439;-75
2022/07/22 07:48:41;;;;;;;7.78;6.40;;;;;;;24.83;63.18;96165.69;5031935;28;24502;-75
2022/07/22 07:51:08;;;;;;;6.88;6.10;;;;;;;24.91;67.11;96164.00;5031355;28;25014;-75
2022/07/22 07:53:34;;;;;;;7.43;6.15;;;;;;;24.96;65.55;96162.47;5031744;28;24440;-75
2022/07/22 07:56:03;;;;;;;8.93;6.40;;;;;;;25.05;66.37;96161.41;5031533;28;24846;-75
2022/07/22 07:58:30;;;;;;;10.57;6.50;;;;;;;24.96;64.40;96153.72;5031609;28;24436;-75
2022/07/22 08:00:56;;;;;;;8.18;5.38;;;;;;;24.89;63.29;96155.41;5031210;28;25027;-76
2022/07/22 08:03:23;;;;;;;7.13;5.55;;;;;;;25.19;63.54;96156.38;5031777;28;24439;-75
2022/07/22 08:05:50;;;;;;;9.60;6.68;;;;;;;25.43;64.05;96158.00;5031346;28;24447;-75
2022/07/22 08:08:16;;;;;;;7.30;6.30;;;;;;;25.53;62.55;96158.56;5030838;28;24432;-75
2022/07/22 08:10:43;;;;;;;10.70;6.03;;;;;;;25.48;63.16;96150.34;5031136;28;24507;-75
2022/07/22 08:13:11;;;;;;;9.45;5.95;;;;;;;25.53;60.04;96151.44;5030666;28;25007;-75
2022/07/22 08:15:38;;;;;;;8.52;6.43;;;;;;;25.61;61.38;96150.53;5030629;28;24858;-75
2022/07/22 08:18:05;;;;;;;10.45;6.32;;;;;;;25.64;59.29;96149.34;5030210;28;24435;-75
2022/07/22 08:20:31;;;;;;;9.13;5.88;;;;;;;25.55;59.02;96146.78;5029039;28;25019;-76
2022/07/22 08:22:58;;;;;;;9.20;6.18;;;;;;;25.99;62.95;96147.84;5029913;28;24860;-75
2022/07/22 08:25:25;;;;;;;13.52;6.40;;;;;;;26.00;59.03;96144.22;5030712;28;24447;-74
2022/07/22 08:27:52;;;;;;;6.65;5.50;;;;;;;26.03;59.90;96138.50;5030020;28;24436;-74
2022/07/22 08:30:22;;;;;;;8.30;5.85;;;;;;;26.34;61.27;96138.31;5029767;28;24447;-74
2022/07/22 08:32:49;;;;;;;10.00;6.65;;;;;;;26.09;60.04;96147.59;5029457;28;24494;-75
2022/07/22 08:35:16;;;;;;;12.82;6.63;;;;;;;26.03;59.70;96141.16;5026454;28;24497;-74
2022/07/22 08:37:45;;;;;;;6.88;5.25;;;;;;;26.07;59.71;96137.16;5025812;28;24439;-74
2022/07/22 08:40:12;;;;;;;17.92;6.43;;;;;;;26.38;56.91;96136.13;5021718;28;24520;-74
2022/07/22 08:42:40;;;;;;;7.80;5.32;;;;;;;26.54;58.28;96128.75;5029529;28;24452;-74
2022/07/22 08:45:08;;;;;;;11.25;5.57;;;;;;;26.82;57.16;96137.88;5029778;28;24451;-74
2022/07/22 08:47:36;;;;;;;8.48;5.43;;;;;;;26.75;57.11;96130.63;5021848;28;24432;-74
2022/07/22 08:50:04;;;;;;;8.98;5.57;;;;;;;27.08;55.23;96124.84;5024062;28;24436;-75
2022/07/22 08:52:30;;;;;;;9.63;6.60;;;;;;;26.98;54.70;96134.94;5021899;28;24439;-74
2022/07/22 08:54:57;;;;;;;14.40;5.37;;;;;;;27.00;54.19;96130.28;5026061;28;25047;-75
2022/07/22 08:57:23;;;;;;;7.32;5.15;;;;;;;26.99;52.19;96134.75;5028465;28;24432;-74
2022/07/22 08:59:51;;;;;;;8.87;4.80;;;;;;;26.73;52.42;96127.34;5025315;28;24444;-74
2022/07/22 09:02:18;;;;;;;7.97;5.22;;;;;;;27.06;53.85;96134.81;5019804;28;24972;-74
2022/07/22 09:04:54;;;;;;;6.77;5.37;;;;;;;27.31;53.14;96122.00;5025618;28;24446;-75
2022/07/22 09:07:28;;;;;;;10.80;5.77;;;;;;;27.60;50.73;96126.31;5026689;28;24990;-74
2022/07/22 09:09:56;;;;;;;7.68;4.57;;;;;;;27.29;52.33;96118.69;5024449;28;24432;-74
2022/07/22 09:12:23;;;;;;;8.85;4.80;;;;;;;27.69;51.19;96119.81;5023088;28;24447;-75
2022/07/22 09:14:51;;;;;;;7.32;5.13;;;;;;;27.73;50.09;96117.59;5026029;28;25004;-74
2022/07/22 09:17:28;;;;;;;7.55;4.60;;;;;;;27.97;51.66;96114.50;5028845;28;24555;-74
2022/07/22 09:19:57;;;;;;;6.47;5.10;;;;;;;28.30;47.53;96126.34;5021648;28;24459;-75
2022/07/22 09:22:49;;;;;;;8.73;4.90;;;;;;;28.17;49.98;96116.44;5029088;28;24460;-74
2022/07/22 09:25:21;;;;;;;7.50;4.78;;;;;;;28.14;49.25;96117.63;5011609;28;24954;-74
2022/07/22 09:27:48;;;;;;;7.20;5.35;;;;;;;28.04;48.61;96109.22;5023014;28;24435;-75
2022/07/22 09:30:17;;;;;;;7.07;4.65;;;;;;;28.36;48.39;96112.19;5025977;28;24973;-75
2022/07/22 09:32:45;;;;;;;6.95;5.10;;;;;;;28.17;49.76;96108.44;5032696;28;24857;-75
2022/07/22 09:35:13;;;;;;;6.35;4.68;;;;;;;28.16;47.44;96112.94;5028539;28;24470;-75
2022/07/22 09:37:48;;;;;;;8.35;5.38;;;;;;;27.85;48.25;96101.91;5026921;28;24533;-74
2022/07/22 09:40:16;;;;;;;7.60;4.72;;;;;;;27.44;49.38;96100.84;5025402;28;24447;-74
2022/07/22 09:42:47;;;;;;;8.70;4.85;;;;;;;27.96;51.19;96101.41;5028155;28;24462;-75
2022/07/22 09:45:14;;;;;;;7.60;4.72;;;;;;;28.18;46.77;96102.09;5033284;28;24531;-75
2022/07/22 09:47:42;;;;;;;9.50;4.47;;;;;;;28.60;50.21;96094.91;5032636;28;24447;-75
2022/07/22 09:50:22;;;;;;;7.43;4.55;;;;;;;28.58;46.29;96096.94;5027201;28;24435;-75
2022/07/22 09:52:50;;;;;;;5.25;4.18;;;;;;;28.68;47.86;96092.06;5034030;28;24436;-75
2022/07/22 09:55:20;;;;;;;6.78;4.70;;;;;;;28.95;47.41;96087.56;5026995;28;24437;-75
2022/07/22 09:57:47;;;;;;;6.45;4.10;;;;;;;28.82;44.96;96087.56;5035625;28;24427;-75
2022/07/22 10:00:17;;;;;;;7.25;4.75;;;;;;;29.09;43.84;96080.44;5021122;28;24463;-75
2022/07/22 10:02:47;;;;;;;6.93;4.82;;;;;;;29.04;47.91;96089.06;5023990;28;24460;-75
2022/07/22 10:05:18;;;;;;;6.80;4.88;;;;;;;28.71;46.66;96075.66;5033359;28;24463;-75
2022/07/22 10:07:46;;;;;;;10.13;4.70;;;;;;;28.61;48.31;96070.72;5035186;28;24431;-75
2022/07/22 10:10:15;;;;;;;8.98;5.00;;;;;;;28.76;44.54;96077.72;5035721;28;24440;-75
2022/07/22 10:12:43;;;;;;;7.45;4.47;;;;;;;28.86;46.06;96072.81;5023575;28;24431;-75
2022/07/22 10:15:12;;;;;;;7.40;4.78;;;;;;;28.73;46.12;96070.13;5027393;28;25016;-75
2022/07/22 10:17:41;;;;;;;6.60;4.65;;;;;;;28.57;44.61;96069.47;5026813;28;24440;-75
2022/07/22 10:20:09;;;;;;;8.20;4.95;;;;;;;28.80;45.59;96068.28;5035317;28;25001;-75
2022/07/22 10:22:55;;;;;;;5.13;4.10;;;;;;;29.04;45.34;96062.41;5025907;28;24440;-75
2022/07/22 10:25:24;;;;;;;5.87;4.67;;;;;;;29.25;44.74;96052.53;5034088;28;24444;-75
2022/07/22 10:27:53;;;;;;;5.37;4.63;;;;;;;29.28;46.99;96047.63;5031755;28;24494;-74
2022/07/22 10:30:21;;;;;;;7.57;5.00;;;;;;;29.25;45.33;96039.19;5029356;28;25008;-74
2022/07/22 10:33:03;;;;;;;7.80;4.80;;;;;;;29.46;44.73;96043.50;5025403;28;24444;-75
2022/07/22 10:35:30;;;;;;;9.00;4.95;;;;;;;29.40;44.93;96050.47;5029042;28;24444;-75
2022/07/22 10:38:00;;;;;;;8.68;4.68;;;;;;;29.51;43.92;96049.84;5027111;28;24463;-75
2022/07/22 10:40:29;;;;;;;7.15;5.03;;;;;;;28.87;43.53;96043.28;5029890;28;24434;-75
2022/07/22 10:43:14;;;;;;;5.43;4.68;;;;;;;28.99;44.30;96045.38;5025543;28;24447;-75
2022/07/22 10:45:45;;;;;;;7.57;4.60;;;;;;;28.82;45.33;96037.75;5030217;28;24451;-75
2022/07/22 10:48:13;;;;;;;7.32;4.80;;;;;;;29.23;45.12;96036.75;5031099;28;24451;-75
2022/07/22 10:50:45;;;;;;;7.32;4.50;;;;;;;29.58;43.98;96040.00;5030164;28;24439;-75
2022/07/22 10:53:15;;;;;;;5.88;4.35;;;;;;;29.82;42.70;96038.53;5029844;28;25016;-74
2022/07/22 10:56:00;;;;;;;5.97;4.82;;;;;;;30.10;44.28;96045.38;5028166;28;24440;-73
2022/07/22 10:59:07;;;;;;;6.28;4.50;;;;;;;29.57;41.61;96035.66;5030893;28;24447;-76
2022/07/22 11:01:35;;;;;;;5.03;4.38;;;;;;;29.38;42.96;96033.88;5031609;28;24490;-76
2022/07/22 11:04:13;;;;;;;5.10;4.47;;;;;;;29.75;44.43;96037.72;5030167;28;24515;-76
2022/07/22 11:06:39;;;;;;;6.30;4.47;;;;;;;29.81;42.88;96028.03;5026363;28;24447;-75
2022/07/22 11:09:09;;;;;;;12.15;4.55;;;;;;;29.71;44.35;96031.16;5029643;28;24494;-75
2022/07/22 11:11:41;;;;;;;6.88;4.50;;;;;;;29.16;42.08;96022.59;5026179;28;24435;-75
2022/07/22 11:14:20;;;;;;;5.13;3.80;;;;;;;29.53;42.56;96014.97;5031958;28;25006;-75
2022/07/22 11:16:48;;;;;;;5.63;4.22;;;;;;;29.76;43.88;96018.00;5022195;28;24413;-75
2022/07/22 11:19:15;;;;;;;5.05;3.95;;;;;;;29.69;42.12;96022.53;5025996;28;24443;-75
2022/07/22 11:21:41;;;;;;;7.00;4.38;;;;;;;29.75;40.70;96013.69;5028170;28;24505;-75
2022/07/22 11:24:09;;;;;;;6.78;4.05;;;;;;;29.85;41.09;96016.75;5031153;28;24471;-75
2022/07/22 11:26:41;;;;;;;4.68;3.72;;;;;;;29.98;40.21;96015.03;5029219;28;24455;-75
2022/07/22 11:29:09;;;;;;;5.25;4.25;;;;;;;29.75;40.21;96010.22;5030761;28;24439;-75
2022/07/22 11:31:36;;;;;;;5.05;4.00;;;;;;;29.87;40.08;96008.50;5029743;28;24443;-75